Time;durP1;ratioP1;P1;durP2;ratioP2;P2;SDS_P1;SDS_P2;PMS_P1;PMS_P2;Temp;Humidity;BMP_temperature;BMP_pressure;BME280_temperature;BME280_humidity;BME280_pressure;Samples;Min_cycle;Max_cycle;Signal;HPM_P1;HPM_P2
2022/09/01 00:01:14;;;;;;;16.20;8.70;;;;;;;13.92;100.00;99611.75;1702029;82;21465;-66
2022/09/01 00:03:39;;;;;;;18.57;9.38;;;;;;;13.90;100.00;99615.89;1678858;83;21401;-66
2022/09/01 00:06:08;;;;;;;13.83;7.87;;;;;;;13.85;100.00;99620.88;1708854;82;21035;-66
2022/09/01 00:08:34;;;;;;;15.88;8.43;;;;;;;13.87;100.00;99614.58;1702147;82;21809;-66
2022/09/01 00:11:01;;;;;;;14.28;8.00;;;;;;;13.94;100.00;99610.09;1709516;82;21055;-66
2022/09/01 00:13:32;;;;;;;15.55;7.87;;;;;;;13.95;100.00;99621.31;1715765;82;20987;-66
2022/09/01 00:15:59;;;;;;;14.35;7.75;;;;;;;13.92;100.00;99610.38;1715738;82;21514;-66
2022/09/01 00:18:26;;;;;;;14.58;7.95;;;;;;;13.90;100.00;99609.06;1713585;83;20956;-66
2022/09/01 00:20:54;;;;;;;;;;;;;;;13.88;100.00;99612.66;1741662;82;21672;-65
2022/09/01 00:23:21;;;;;;;17.32;6.95;;;;;;;13.87;100.00;99611.02;1737947;80;20149;-66
2022/09/01 00:25:47;;;;;;;12.15;6.62;;;;;;;13.88;100.00;99610.73;1746783;81;21091;-66
2022/09/01 00:30:42;;;;;;;12.77;7.50;;;;;;;13.93;100.00;99608.45;1795557;78;22617;-66
2022/09/01 00:33:09;;;;;;;12.18;6.67;;;;;;;13.82;100.00;99617.38;1735213;82;21691;-66
2022/09/01 00:35:36;;;;;;;10.32;6.12;;;;;;;13.82;100.00;99608.34;1728937;82;21116;-66
2022/09/01 00:38:02;;;;;;;12.75;6.75;;;;;;;13.87;100.00;99616.49;1731066;81;21046;-66
2022/09/01 00:40:30;;;;;;;9.88;6.17;;;;;;;13.92;100.00;99608.22;1726611;81;22271;-66
2022/09/01 00:42:56;;;;;;;10.08;5.65;;;;;;;13.93;100.00;99609.83;1745642;82;21074;-66
2022/09/01 00:45:23;;;;;;;11.00;5.87;;;;;;;13.88;100.00;99611.29;1726291;81;21097;-66
2022/09/01 00:47:49;;;;;;;11.10;5.85;;;;;;;13.82;100.00;99615.19;1667855;84;21106;-66
2022/09/01 00:50:17;;;;;;;9.85;5.50;;;;;;;13.76;100.00;99621.30;1696020;84;21113;-65
2022/09/01 00:52:50;;;;;;;9.40;4.85;;;;;;;13.75;100.00;99614.74;1685323;85;21553;-66
2022/09/01 00:55:29;;;;;;;9.43;5.15;;;;;;;13.75;100.00;99616.11;1685436;85;21678;-66
2022/09/01 00:57:56;;;;;;;9.48;5.50;;;;;;;13.73;100.00;99619.71;1682690;84;21067;-67
2022/09/01 01:00:26;;;;;;;8.70;5.12;;;;;;;13.69;100.00;99620.03;1684847;83;21084;-66
2022/09/01 01:02:54;;;;;;;11.18;5.92;;;;;;;13.63;100.00;99617.12;1682390;84;21074;-66
2022/09/01 01:05:27;;;;;;;10.72;5.35;;;;;;;13.60;100.00;99615.80;1694843;83;21043;-66
2022/09/01 01:07:54;;;;;;;9.23;4.87;;;;;;;13.59;100.00;99611.97;1690127;84;21002;-66
2022/09/01 01:10:21;;;;;;;14.33;5.40;;;;;;;13.56;100.00;99613.38;1713428;83;21071;-66
2022/09/01 01:12:50;;;;;;;12.30;5.28;;;;;;;13.49;100.00;99615.67;1695141;83;21504;-66
2022/09/01 01:15:17;;;;;;;8.73;5.17;;;;;;;13.41;100.00;99610.84;1695200;82;21105;-66
2022/09/01 01:17:44;;;;;;;12.78;5.40;;;;;;;13.38;100.00;99609.52;1699803;83;21038;-66
2022/09/01 01:23:29;;;;;;;9.95;5.03;;;;;;;13.29;100.00;99611.80;1694732;83;21047;-66
2022/09/01 01:25:57;;;;;;;8.40;5.00;;;;;;;13.19;100.00;99622.86;1689200;83;21132;-66
2022/09/01 01:28:32;;;;;;;11.60;5.45;;;;;;;13.12;100.00;99616.39;1696590;84;21042;-67
2022/09/01 01:31:11;;;;;;;9.70;5.10;;;;;;;13.11;100.00;99617.48;1688535;83;21621;-66
2022/09/01 01:33:43;;;;;;;11.57;5.42;;;;;;;13.05;100.00;99610.42;1694404;83;21060;-66
2022/09/01 01:36:18;;;;;;;10.18;5.75;;;;;;;12.94;100.00;99619.84;1694112;83;21066;-66
2022/09/01 01:38:47;;;;;;;10.70;5.12;;;;;;;12.78;100.00;99613.73;1699325;83;21025;-67
2022/09/01 01:41:14;;;;;;;9.18;5.25;;;;;;;12.73;100.00;99612.95;1693539;82;21160;-67
2022/09/01 01:43:41;;;;;;;11.68;5.83;;;;;;;12.71;100.00;99613.27;1692119;84;21074;-67
2022/09/01 01:46:08;;;;;;;10.53;5.75;;;;;;;12.68;100.00;99619.86;1708180;82;21137;-67
2022/09/01 01:48:39;;;;;;;11.63;5.75;;;;;;;12.61;100.00;99611.19;1683381;84;21126;-67
2022/09/01 01:51:06;;;;;;;11.48;5.35;;;;;;;12.53;100.00;99615.89;1679146;84;21070;-68
2022/09/01 01:53:33;;;;;;;9.53;5.28;;;;;;;12.49;100.00;99612.92;1686487;85;21071;-67
2022/09/01 01:56:01;;;;;;;11.65;6.12;;;;;;;12.47;100.00;99606.38;1660464;84;21138;-67
2022/09/01 01:58:30;;;;;;;12.73;5.60;;;;;;;12.46;100.00;99599.86;1701987;83;21076;-66
2022/09/01 02:00:57;;;;;;;12.18;5.50;;;;;;;12.45;100.00;99600.95;1668334;84;21770;-66
2022/09/01 02:03:27;;;;;;;10.58;5.55;;;;;;;12.40;100.00;99597.70;1695637;83;21528;-66
2022/09/01 02:05:54;;;;;;;10.05;5.12;;;;;;;12.36;100.00;99599.38;1702462;82;21124;-66
2022/09/01 02:08:24;;;;;;;10.25;5.42;;;;;;;12.35;100.00;99588.77;1699743;83;21025;-66
2022/09/01 02:10:54;;;;;;;11.93;5.47;;;;;;;12.36;100.00;99595.28;1684833;83;21161;-66
2022/09/01 02:13:25;;;;;;;11.00;5.83;;;;;;;12.31;100.00;99593.98;1675180;85;21043;-66
2022/09/01 02:15:53;;;;;;;12.25;5.97;;;;;;;12.23;100.00;99595.95;1694004;83;21772;-66
2022/09/01 02:18:25;;;;;;;11.97;5.72;;;;;;;12.12;100.00;99593.03;1687256;84;21529;-66
2022/09/01 02:20:54;;;;;;;9.78;5.58;;;;;;;12.03;100.00;99602.94;1688385;84;21094;-68
2022/09/01 02:23:24;;;;;;;10.90;6.00;;;;;;;11.98;100.00;99606.52;1686965;84;21069;-67
2022/09/01 02:25:55;;;;;;;11.55;6.40;;;;;;;12.01;100.00;99605.70;1686725;83;21682;-68
2022/09/01 02:28:22;;;;;;;9.15;5.80;;;;;;;11.98;100.00;99603.78;1681874;84;21073;-67
2022/09/01 02:30:52;;;;;;;9.83;5.75;;;;;;;11.93;100.00;99606.56;1666410;85;21159;-67
2022/09/01 02:33:19;;;;;;;10.82;5.67;;;;;;;11.89;100.00;99601.95;1694969;84;21024;-67
2022/09/01 02:35:51;;;;;;;12.20;6.45;;;;;;;11.89;100.00;99601.41;1678820;84;21110;-67
2022/09/01 02:38:19;;;;;;;12.13;6.55;;;;;;;11.89;100.00;99601.41;1701217;84;21057;-67
2022/09/01 02:40:47;;;;;;;10.32;6.55;;;;;;;11.85;100.00;99604.43;1685376;84;21667;-67
2022/09/01 02:43:19;;;;;;;12.35;6.47;;;;;;;11.81;100.00;99605.27;1683457;84;21022;-67
2022/09/01 02:45:53;;;;;;;12.13;5.90;;;;;;;11.75;100.00;99601.77;1732792;81;21023;-67
2022/09/01 02:48:31;;;;;;;9.85;5.83;;;;;;;11.75;100.00;99606.41;1726168;81;21550;-67
2022/09/01 02:50:58;;;;;;;10.08;5.85;;;;;;;11.76;100.00;99600.66;1735003;81;21052;-67
2022/09/01 02:53:25;;;;;;;9.23;6.28;;;;;;;11.74;100.00;99602.86;1729171;81;20973;-67
2022/09/01 02:55:51;;;;;;;11.70;6.12;;;;;;;11.72;100.00;99611.07;1728912;81;21052;-67
2022/09/01 02:58:18;;;;;;;11.22;6.50;;;;;;;11.67;100.00;99609.69;1723566;81;21034;-67
2022/09/01 03:00:46;;;;;;;14.07;6.60;;;;;;;11.60;100.00;99615.46;1708491;82;21094;-67
2022/09/01 03:03:12;;;;;;;11.93;6.72;;;;;;;11.60;100.00;99615.46;1684022;82;21054;-67
2022/09/01 03:05:39;;;;;;;11.18;6.37;;;;;;;11.61;100.00;99614.92;1726479;81;21588;-67
2022/09/01 03:08:09;;;;;;;9.93;6.37;;;;;;;11.63;100.00;99614.08;1729908;81;21056;-67
2022/09/01 03:10:40;;;;;;;10.53;5.90;;;;;;;11.60;100.00;99612.73;1734096;81;21084;-67
2022/09/01 03:13:10;;;;;;;13.10;5.67;;;;;;;11.58;100.00;99615.48;1725208;81;21003;-67
2022/09/01 03:15:37;;;;;;;10.95;5.55;;;;;;;11.49;100.00;99616.06;1733929;81;21089;-67
2022/09/01 03:18:05;;;;;;;8.95;5.78;;;;;;;11.40;100.00;99620.48;1727658;81;21066;-67
2022/09/01 03:20:33;;;;;;;10.25;5.95;;;;;;;11.31;100.00;99630.86;1729141;81;21130;-67
2022/09/01 03:23:03;;;;;;;12.50;7.30;;;;;;;11.21;100.00;99635.81;1724768;81;21011;-67
2022/09/01 03:25:30;;;;;;;15.00;9.00;;;;;;;11.14;100.00;99642.64;1735789;81;21072;-67
2022/09/01 03:28:00;;;;;;;16.75;9.50;;;;;;;11.07;100.00;99646.20;1730152;81;21027;-67
2022/09/01 03:30:29;;;;;;;18.02;10.50;;;;;;;10.95;100.00;99650.05;1724342;81;21569;-68
2022/09/01 03:32:56;;;;;;;18.30;9.75;;;;;;;10.88;100.00;99647.34;1720077;82;21015;-67
2022/09/01 03:35:24;;;;;;;17.02;9.98;;;;;;;10.87;100.00;99646.55;1730801;81;21071;-67
2022/09/01 03:37:51;;;;;;;19.35;11.12;;;;;;;10.86;100.00;99645.45;1723185;82;20995;-66
2022/09/01 03:40:18;;;;;;;19.87;10.48;;;;;;;10.82;100.00;99650.63;1729509;82;21039;-67
2022/09/01 03:42:45;;;;;;;19.05;10.28;;;;;;;10.74;100.00;99652.54;1705734;83;21001;-67
2022/09/01 03:45:14;;;;;;;17.80;10.63;;;;;;;10.74;100.00;99658.53;1717463;82;21074;-67
2022/09/01 03:47:42;;;;;;;17.95;10.18;;;;;;;10.77;100.00;99660.73;1740305;82;21015;-67
2022/09/01 03:50:19;;;;;;;20.62;10.60;;;;;;;10.80;100.00;99656.91;1727977;82;21024;-67
2022/09/01 03:52:41;;;;;;;18.17;11.10;;;;;;;10.82;100.00;99656.61;1717638;82;20999;-68
2022/09/01 03:55:08;;;;;;;21.70;11.63;;;;;;;10.79;100.00;99657.17;1717501;82;21083;-67
2022/09/01 03:57:41;;;;;;;20.12;11.45;;;;;;;10.78;100.00;99655.53;1703669;82;21049;-67
2022/09/01 04:00:10;;;;;;;19.77;10.90;;;;;;;10.82;100.00;99665.61;1716327;82;21082;-67
2022/09/01 04:02:37;;;;;;;22.73;12.70;;;;;;;10.89;100.00;99662.59;1712442;82;21047;-67
2022/09/01 04:05:06;;;;;;;19.57;11.35;;;;;;;10.89;100.00;99660.69;1716530;82;21767;-67
2022/09/01 04:07:32;;;;;;;23.02;12.53;;;;;;;10.86;100.00;99659.88;1735134;82;21050;-67
2022/09/01 04:09:59;;;;;;;26.57;12.13;;;;;;;10.86;100.00;99664.51;1720805;82;21114;-67
2022/09/01 04:12:25;;;;;;;25.82;12.40;;;;;;;10.89;100.00;99666.14;1728274;82;21035;-67
2022/09/01 04:14:52;;;;;;;23.32;12.70;;;;;;;10.97;100.00;99660.14;1723380;82;21488;-68
2022/09/01 04:20:08;;;;;;;28.92;14.43;;;;;;;11.21;100.00;99676.68;1725359;81;21604;-67
2022/09/01 04:22:37;;;;;;;24.40;14.23;;;;;;;11.34;100.00;99673.90;1719095;82;21038;-66
2022/09/01 04:25:05;;;;;;;26.23;13.93;;;;;;;11.47;100.00;99674.69;1717301;82;21110;-67
2022/09/01 04:27:39;;;;;;;29.15;14.33;;;;;;;11.59;100.00;99675.70;1721413;82;21074;-67
2022/09/01 04:30:02;;;;;;;28.23;15.20;;;;;;;11.73;100.00;99684.94;1722520;82;21120;-66
2022/09/01 04:32:31;;;;;;;27.42;15.98;;;;;;;11.82;100.00;99676.45;1668529;83;21026;-67
2022/09/01 04:35:00;;;;;;;30.32;17.10;;;;;;;11.91;100.00;99673.39;1648939;83;21098;-67
2022/09/01 04:37:27;;;;;;;33.73;17.95;;;;;;;11.96;100.00;99673.37;1672557;83;21031;-67
2022/09/01 04:39:56;;;;;;;40.58;22.10;;;;;;;11.99;100.00;99678.27;1709990;83;21149;-67
2022/09/01 04:42:27;;;;;;;41.28;24.30;;;;;;;12.09;100.00;99668.64;1714235;83;21038;-67
2022/09/01 04:44:56;;;;;;;42.27;26.85;;;;;;;12.22;100.00;99678.12;1703982;82;21045;-67
2022/09/01 04:47:28;;;;;;;46.65;27.27;;;;;;;12.24;100.00;99665.81;1709476;83;21556;-67
2022/09/01 04:49:56;;;;;;;47.58;28.62;;;;;;;12.26;100.00;99673.70;1681597;85;21639;-67
2022/09/01 04:52:21;;;;;;;51.37;29.87;;;;;;;12.27;100.00;99666.61;1664341;83;21604;-67
2022/09/01 04:54:48;;;;;;;54.67;33.02;;;;;;;12.34;100.00;99671.73;1704752;82;21398;-67
2022/09/01 04:57:15;;;;;;;63.92;34.60;;;;;;;12.45;100.00;99674.66;1710614;83;21014;-66
2022/09/01 04:59:42;;;;;;;62.35;37.20;;;;;;;12.54;100.00;99676.23;1705374;83;20989;-67
2022/09/01 05:02:09;;;;;;;;;;;;;;;12.60;100.00;99673.72;1716025;83;20979;-66
2022/09/01 05:04:36;;;;;;;71.17;40.90;;;;;;;12.63;100.00;99675.33;1704590;82;20149;-67
2022/09/01 05:07:03;;;;;;;;;;;;;;;12.65;100.00;99670.38;1706277;83;21085;-66
2022/09/01 05:09:36;;;;;;;72.92;40.88;;;;;;;12.82;100.00;99668.03;1714238;83;20164;-67
2022/09/01 05:12:22;;;;;;;79.40;47.70;;;;;;;13.02;100.00;99664.84;1712065;83;21070;-67
2022/09/01 05:14:48;;;;;;;86.28;50.30;;;;;;;13.26;100.00;99669.25;1694954;82;21491;-66
2022/09/01 05:17:17;;;;;;;84.55;51.05;;;;;;;13.53;100.00;99660.47;1690228;84;21439;-67
2022/09/01 05:19:46;;;;;;;90.67;52.58;;;;;;;13.74;100.00;99658.28;1685844;84;21531;-67
2022/09/01 05:22:14;;;;;;;83.58;51.50;;;;;;;13.97;100.00;99653.28;1687223;84;22244;-66
2022/09/01 05:24:42;;;;;;;99.35;55.10;;;;;;;14.19;100.00;99654.05;1686276;84;21033;-65
2022/09/01 05:27:11;;;;;;;95.22;57.25;;;;;;;14.36;100.00;99657.92;1673116;84;21079;-66
2022/09/01 05:29:39;;;;;;;103.27;58.40;;;;;;;14.51;100.00;99653.30;1648924;85;21030;-66
2022/09/01 05:32:11;;;;;;;97.75;57.93;;;;;;;14.70;100.00;99653.50;1681170;85;21745;-66
2022/09/01 05:34:38;;;;;;;97.00;56.70;;;;;;;14.88;100.00;99650.44;1715701;83;21110;-65
2022/09/01 05:37:07;;;;;;;97.50;56.90;;;;;;;15.02;100.00;99656.75;1715815;83;21681;-65
2022/09/01 05:39:36;;;;;;;93.35;56.10;;;;;;;15.17;100.00;99650.17;1717531;82;21012;-65
2022/09/01 05:42:06;;;;;;;86.40;54.93;;;;;;;15.36;100.00;99647.61;1715898;82;21015;-65
2022/09/01 05:44:35;;;;;;;83.60;52.25;;;;;;;15.59;100.00;99653.22;1724019;82;21010;-67
2022/09/01 05:47:08;;;;;;;89.15;54.05;;;;;;;15.87;100.00;99647.94;1736183;81;21041;-66
2022/09/01 05:49:32;;;;;;;76.53;48.63;;;;;;;16.08;100.00;99649.09;1686332;82;21915;-65
2022/09/01 05:52:01;;;;;;;78.97;50.43;;;;;;;16.30;100.00;99641.41;1722388;82;21007;-66
2022/09/01 05:54:31;;;;;;;66.25;43.02;;;;;;;16.48;100.00;99638.23;1720996;82;20988;-66
2022/09/01 05:56:58;;;;;;;66.00;41.98;;;;;;;16.76;100.00;99636.42;1717987;81;21098;-66
2022/09/01 05:59:30;;;;;;;61.55;42.08;;;;;;;16.95;100.00;99636.21;1723938;82;20978;-67
2022/09/01 06:02:01;;;;;;;60.73;38.60;;;;;;;17.10;100.00;99629.49;1710513;82;21071;-66
2022/09/01 06:04:29;;;;;;;57.90;36.90;;;;;;;17.21;100.00;99633.59;1731359;82;21389;-67
2022/09/01 06:06:58;;;;;;;59.08;32.80;;;;;;;17.26;100.00;99630.11;1710092;82;21059;-67
2022/09/01 06:09:25;;;;;;;46.13;29.00;;;;;;;17.34;100.00;99629.91;1713077;82;21036;-68
2022/09/01 06:11:55;;;;;;;45.78;29.92;;;;;;;17.39;100.00;99633.90;1707085;82;21036;-67
2022/09/01 06:14:21;;;;;;;44.50;29.50;;;;;;;17.32;100.00;99623.92;1715452;82;21821;-66
2022/09/01 06:16:48;;;;;;;53.80;32.33;;;;;;;17.30;100.00;99628.35;1721845;82;21143;-67
2022/09/01 06:19:14;;;;;;;48.38;31.70;;;;;;;17.49;100.00;99628.09;1703759;82;21009;-68
2022/09/01 06:21:43;;;;;;;52.17;31.33;;;;;;;17.84;100.00;99627.06;1721601;82;21099;-68
2022/09/01 06:24:09;;;;;;;43.25;29.42;;;;;;;18.13;100.00;99618.73;1720736;82;20987;-68
2022/09/01 06:26:37;;;;;;;45.55;30.10;;;;;;;18.22;100.00;99614.83;1712340;82;21035;-67
2022/09/01 06:29:08;;;;;;;46.53;28.52;;;;;;;18.44;100.00;99614.41;1722596;82;21017;-68
2022/09/01 06:31:38;;;;;;;41.55;28.12;;;;;;;18.58;100.00;99618.63;1723687;81;21091;-69
2022/09/01 06:34:16;;;;;;;44.58;27.95;;;;;;;18.79;100.00;99620.12;1721643;82;21042;-68
2022/09/01 06:36:39;;;;;;;38.92;26.90;;;;;;;18.94;100.00;99623.73;1720436;82;21119;-69
2022/09/01 06:39:07;;;;;;;44.50;29.67;;;;;;;19.18;100.00;99621.77;1720113;82;21458;-67
2022/09/01 06:41:36;;;;;;;47.93;32.90;;;;;;;19.29;100.00;99619.70;1719071;83;21055;-68
2022/09/01 06:44:03;;;;;;;55.25;35.45;;;;;;;19.20;100.00;99620.88;1699081;83;20988;-67
2022/09/01 06:46:30;;;;;;;56.45;38.67;;;;;;;19.30;100.00;99619.94;1720265;83;21047;-66
2022/09/01 06:48:59;;;;;;;66.25;45.12;;;;;;;19.45;100.00;99626.85;1719964;82;21039;-68
2022/09/01 06:51:30;;;;;;;66.20;42.38;;;;;;;19.56;100.00;99621.76;1720471;82;21007;-70
2022/09/01 06:53:58;;;;;;;83.60;54.25;;;;;;;19.62;100.00;99620.45;1718732;82;20976;-70
2022/09/01 06:56:32;;;;;;;94.45;63.98;;;;;;;19.67;100.00;99625.76;1716825;82;21445;-69
2022/09/01 06:59:04;;;;;;;98.33;68.40;;;;;;;19.70;100.00;99627.28;1717921;82;21489;-69
2022/09/01 07:01:30;;;;;;;89.25;60.48;;;;;;;19.62;100.00;99630.11;1721279;82;21094;-69
2022/09/01 07:03:57;;;;;;;88.20;57.67;;;;;;;19.42;100.00;99624.77;1720166;82;21075;-67
2022/09/01 07:06:41;;;;;;;85.80;57.43;;;;;;;19.45;100.00;99630.21;1714708;82;21115;-69
2022/09/01 07:09:18;;;;;;;91.45;61.88;;;;;;;19.46;100.00;99637.33;1717797;82;21023;-71
2022/09/01 07:11:46;;;;;;;105.27;69.27;;;;;;;19.47;100.00;99634.25;1720098;82;21070;-69
2022/09/01 07:14:15;;;;;;;96.87;66.75;;;;;;;19.48;100.00;99636.44;1721951;82;21007;-70
2022/09/01 07:16:43;;;;;;;105.00;70.65;;;;;;;19.50;100.00;99635.52;1720774;82;21098;-68
2022/09/01 07:19:13;;;;;;;116.20;80.97;;;;;;;19.55;100.00;99632.59;1720064;82;21000;-68
2022/09/01 07:21:42;;;;;;;110.97;76.40;;;;;;;19.65;100.00;99645.44;1717011;82;21605;-69
2022/09/01 07:24:10;;;;;;;121.80;88.17;;;;;;;19.61;100.00;99646.43;1660484;84;21124;-67
2022/09/01 07:26:38;;;;;;;118.42;84.47;;;;;;;19.54;100.00;99649.72;1714415;82;21784;-68
2022/09/01 07:29:06;;;;;;;124.80;87.37;;;;;;;19.37;100.00;99649.78;1719024;82;21022;-70
2022/09/01 07:31:40;;;;;;;138.05;92.47;;;;;;;19.33;100.00;99647.44;1719244;81;21528;-70
2022/09/01 07:34:12;;;;;;;141.92;96.53;;;;;;;19.31;100.00;99646.38;1691583;82;20966;-70
2022/09/01 07:36:40;;;;;;;149.23;101.30;;;;;;;19.26;100.00;99649.91;1730758;80;21050;-71
2022/09/01 07:39:08;;;;;;;139.85;98.55;;;;;;;19.10;99.72;99646.87;1679795;83;20987;-72
2022/09/01 07:41:37;;;;;;;145.68;99.47;;;;;;;18.92;100.00;99646.67;1709152;82;21091;-71
2022/09/01 07:44:12;;;;;;;176.82;115.97;;;;;;;18.83;100.00;99648.66;1708701;82;20964;-69
2022/09/01 07:46:58;;;;;;;163.22;103.70;;;;;;;18.82;100.00;99649.80;1716814;82;21589;-71
2022/09/01 07:49:28;;;;;;;148.60;100.20;;;;;;;18.79;100.00;99647.12;1713434;82;21495;-71
2022/09/01 07:51:57;;;;;;;147.13;95.83;;;;;;;18.71;100.00;99645.76;1714246;82;21043;-71
2022/09/01 07:54:24;;;;;;;111.62;72.90;;;;;;;18.68;100.00;99649.17;1709621;82;20983;-69
2022/09/01 07:56:53;;;;;;;93.45;61.37;;;;;;;18.71;100.00;99648.52;1676123;83;21559;-71
2022/09/01 07:59:21;;;;;;;78.75;54.33;;;;;;;18.71;100.00;99647.14;1709472;82;21007;-70
2022/09/01 08:01:49;;;;;;;77.92;54.05;;;;;;;18.62;96.42;99649.11;1715437;81;21079;-69
2022/09/01 08:04:21;;;;;;;80.53;53.17;;;;;;;18.58;98.52;99635.73;1711871;82;20970;-70
2022/09/01 08:09:47;;;;;;;63.63;43.35;;;;;;;18.83;96.22;99640.39;1792733;78;22957;-67
2022/09/01 08:12:15;;;;;;;76.45;47.10;;;;;;;18.86;93.92;99640.55;1733818;81;21069;-69
2022/09/01 08:14:45;;;;;;;63.90;42.70;;;;;;;18.95;94.64;99641.91;1730633;81;21035;-70
2022/09/01 08:17:14;;;;;;;52.50;34.70;;;;;;;19.13;93.60;99637.14;1734359;81;22231;-70
2022/09/01 08:19:42;;;;;;;39.90;28.47;;;;;;;19.24;91.09;99635.61;1735088;80;21044;-68
2022/09/01 08:22:10;;;;;;;33.45;22.50;;;;;;;19.37;93.73;99632.66;1731237;81;21073;-70
2022/09/01 08:24:42;;;;;;;29.98;18.73;;;;;;;19.63;90.86;99628.94;1717927;82;21065;-71
2022/09/01 08:27:08;;;;;;;29.77;19.45;;;;;;;19.80;82.64;99620.58;1724431;81;20994;-69
2022/09/01 08:29:35;;;;;;;21.52;15.65;;;;;;;19.87;84.04;99630.52;1724671;81;22111;-70
2022/09/01 08:32:03;;;;;;;23.80;13.98;;;;;;;20.03;79.76;99616.89;1704238;83;21023;-71
2022/09/01 08:34:32;;;;;;;21.95;13.10;;;;;;;20.15;79.33;99623.88;1727189;81;21028;-70
2022/09/01 08:36:59;;;;;;;14.63;9.13;;;;;;;20.29;77.86;99621.67;1725919;81;21060;-72
2022/09/01 08:39:26;;;;;;;10.50;5.10;;;;;;;20.34;75.97;99615.36;1730414;81;21451;-70
2022/09/01 08:42:44;;;;;;;10.48;6.10;;;;;;;20.49;75.75;99618.64;1712090;82;21097;-69
2022/09/01 08:45:16;;;;;;;11.20;6.65;;;;;;;20.74;75.53;99614.23;1720527;82;21111;-70
2022/09/01 08:47:43;;;;;;;9.15;4.65;;;;;;;20.94;71.53;99616.69;1732556;81;21015;-71
2022/09/01 08:50:11;;;;;;;7.87;3.40;;;;;;;21.01;70.14;99610.01;1706186;81;21031;-68
2022/09/01 08:53:01;;;;;;;6.93;3.57;;;;;;;21.01;69.50;99614.76;1684006;84;21019;-68
2022/09/01 08:55:33;;;;;;;10.08;3.60;;;;;;;20.99;68.61;99615.09;1665167;84;21237;-70
2022/09/01 08:58:00;;;;;;;5.90;3.72;;;;;;;20.94;67.95;99609.77;1689855;83;21581;-70
2022/09/01 09:00:29;;;;;;;7.22;3.70;;;;;;;20.98;68.10;99609.89;1691894;83;21010;-71
2022/09/01 09:03:19;;;;;;;7.20;3.00;;;;;;;21.14;68.34;99599.80;1695523;83;21637;-71
2022/09/01 09:06:03;;;;;;;7.50;2.50;;;;;;;21.14;68.34;99599.80;1691256;84;21065;-71
2022/09/01 09:08:56;;;;;;;6.45;1.98;;;;;;;21.07;70.74;99596.77;1691909;83;20996;-71
2022/09/01 09:12:09;;;;;;;4.12;1.95;;;;;;;21.22;71.63;99600.28;1669547;84;21063;-70
2022/09/01 09:15:20;;;;;;;3.20;1.62;;;;;;;21.14;67.88;99597.85;1675936;84;21522;-71
2022/09/01 09:17:58;;;;;;;3.65;1.52;;;;;;;20.99;68.77;99604.02;1679874;84;21067;-71
2022/09/01 09:20:20;;;;;;;2.70;1.30;;;;;;;20.83;73.69;99601.10;1680287;83;21094;-71
2022/09/01 09:22:46;;;;;;;2.45;0.80;;;;;;;20.76;67.34;99602.23;1680355;84;21594;-70
2022/09/01 09:25:15;;;;;;;2.50;0.60;;;;;;;20.76;67.34;99602.23;1672413;84;21829;-72
2022/09/01 09:27:46;;;;;;;1.35;0.45;;;;;;;20.46;64.82;99599.97;1669933;84;21046;-70
2022/09/01 09:30:27;;;;;;;1.40;0.60;;;;;;;20.27;64.70;99604.03;1673472;84;21066;-68
2022/09/01 09:33:03;;;;;;;1.02;0.50;;;;;;;20.17;65.38;99607.76;1666811;84;21003;-67
2022/09/01 09:35:46;;;;;;;1.10;0.55;;;;;;;20.06;67.77;99601.83;1676437;84;21604;-68
2022/09/01 09:38:27;;;;;;;4.85;1.00;;;;;;;20.07;70.55;99593.79;1680975;84;21035;-70
2022/09/01 09:41:02;;;;;;;2.70;0.90;;;;;;;20.11;68.16;99596.69;1684552;83;21051;-67
2022/09/01 09:43:32;;;;;;;4.15;1.00;;;;;;;20.08;68.02;99594.60;1683607;84;21035;-69
2022/09/01 09:46:22;;;;;;;4.17;0.78;;;;;;;20.04;69.19;99604.14;1682473;84;21055;-65
2022/09/01 09:48:55;;;;;;;1.57;0.72;;;;;;;20.07;67.74;99597.12;1684533;84;21036;-67
2022/09/01 09:51:22;;;;;;;2.75;0.70;;;;;;;20.14;73.68;99593.23;1640409;84;21510;-67
2022/09/01 09:53:48;;;;;;;4.17;1.47;;;;;;;20.31;72.81;99594.49;1658979;84;21021;-66
2022/09/01 09:56:23;;;;;;;4.87;0.93;;;;;;;20.43;68.09;99591.79;1683206;85;21138;-66
2022/09/01 09:58:49;;;;;;;2.95;1.10;;;;;;;20.49;68.12;99591.80;1683216;84;21089;-68
2022/09/01 10:01:24;;;;;;;1.20;0.60;;;;;;;20.54;66.41;99596.31;1682865;82;21043;-68
2022/09/01 10:03:57;;;;;;;1.75;0.65;;;;;;;20.53;64.71;99597.45;1670565;84;21056;-67
2022/09/01 10:06:33;;;;;;;2.95;0.60;;;;;;;20.42;62.15;99592.92;1684322;84;21483;-71
2022/09/01 10:09:09;;;;;;;1.87;0.78;;;;;;;20.26;60.09;99597.45;1712598;81;21034;-68
2022/09/01 10:11:40;;;;;;;2.17;0.75;;;;;;;20.15;60.21;99599.83;1709533;81;21043;-70
2022/09/01 10:14:16;;;;;;;2.65;0.62;;;;;;;20.18;62.89;99595.00;1662861;84;21455;-69
2022/09/01 10:16:43;;;;;;;1.75;0.65;;;;;;;20.37;66.10;99602.02;1688074;84;21043;-68
2022/09/01 10:19:13;;;;;;;3.20;0.78;;;;;;;20.50;64.82;99596.76;1688654;84;21609;-70
2022/09/01 10:21:42;;;;;;;3.90;0.72;;;;;;;20.61;62.50;99603.48;1689690;83;21023;-67
2022/09/01 10:24:34;;;;;;;2.95;0.72;;;;;;;20.60;59.98;99603.23;1682766;84;21010;-68
2022/09/01 10:27:09;;;;;;;2.10;0.70;;;;;;;20.53;60.16;99598.27;1680114;84;21444;-67
2022/09/01 10:29:45;;;;;;;2.52;0.70;;;;;;;20.43;62.46;99590.97;1681571;84;21018;-69
2022/09/01 10:32:16;;;;;;;4.15;0.88;;;;;;;20.38;60.08;99595.32;1695545;83;20959;-69
2022/09/01 10:34:42;;;;;;;3.40;0.98;;;;;;;20.18;58.82;99592.23;1666149;84;20989;-68
2022/09/01 10:37:09;;;;;;;2.33;0.60;;;;;;;19.93;58.62;99594.63;1653514;85;20975;-67
2022/09/01 10:39:37;;;;;;;2.58;0.68;;;;;;;19.81;62.05;99591.22;1665029;84;21673;-67
2022/09/01 10:42:07;;;;;;;3.80;0.78;;;;;;;19.91;64.00;99589.22;1632469;84;21518;-67
2022/09/01 10:44:40;;;;;;;3.80;0.95;;;;;;;20.09;63.57;99581.81;1648575;85;21030;-67
2022/09/01 10:47:29;;;;;;;2.42;0.88;;;;;;;20.28;59.79;99591.03;1686793;84;21538;-66
2022/09/01 10:49:59;;;;;;;1.42;0.75;;;;;;;20.39;60.60;99593.61;1665503;83;21670;-67
2022/09/01 10:52:47;;;;;;;3.42;0.82;;;;;;;20.38;54.83;99582.87;1639224;85;21412;-66
2022/09/01 10:55:26;;;;;;;2.12;0.60;;;;;;;20.20;54.88;99584.97;1674202;84;21168;-67
2022/09/01 10:58:13;;;;;;;2.33;0.80;;;;;;;20.04;55.36;99580.66;1660959;85;21007;-66
2022/09/01 11:00:45;;;;;;;;;;;;;;;19.96;57.20;99580.70;1658244;84;21589;-67
2022/09/01 11:03:17;;;;;;;1.98;1.00;;;;;;;19.82;55.56;99583.75;1682501;84;20107;-66
2022/09/01 11:05:59;;;;;;;2.75;0.90;;;;;;;19.64;55.57;99578.11;1682563;84;21070;-66
2022/09/01 11:08:32;;;;;;;2.10;0.80;;;;;;;19.62;57.23;99579.84;1679610;84;20963;-67
2022/09/01 11:11:38;;;;;;;1.02;0.60;;;;;;;19.74;59.30;99575.75;1680728;84;21593;-67
2022/09/01 11:14:21;;;;;;;1.72;0.60;;;;;;;19.91;58.51;99573.42;1670673;84;21073;-68
2022/09/01 11:17:26;;;;;;;2.92;0.70;;;;;;;20.03;58.26;99576.27;1681747;84;21673;-68
2022/09/01 11:19:58;;;;;;;2.67;0.50;;;;;;;20.08;56.15;99570.55;1653858;85;21097;-69
2022/09/01 11:22:45;;;;;;;2.65;0.62;;;;;;;20.14;57.48;99573.89;1679101;84;21026;-67
2022/09/01 11:25:34;;;;;;;2.20;0.70;;;;;;;20.24;57.98;99571.52;1680095;84;21794;-69
2022/09/01 11:28:34;;;;;;;2.22;0.72;;;;;;;20.36;58.36;99577.71;1720168;81;21590;-68
2022/09/01 11:31:07;;;;;;;1.80;0.90;;;;;;;20.54;56.50;99563.13;1710428;81;21169;-68
2022/09/01 11:34:05;;;;;;;2.80;0.70;;;;;;;20.67;59.16;99577.22;1725002;81;21057;-66
2022/09/01 11:36:46;;;;;;;4.70;0.70;;;;;;;20.75;54.75;99566.06;1725654;82;21149;-67
2022/09/01 11:39:21;;;;;;;1.77;0.70;;;;;;;20.76;53.33;99568.26;1703433;81;21129;-65
2022/09/01 11:42:26;;;;;;;4.83;0.80;;;;;;;20.77;51.05;99574.00;1720088;81;21153;-67
2022/09/01 11:45:12;;;;;;;2.55;0.60;;;;;;;20.76;50.29;99566.28;1716016;81;21030;-67
2022/09/01 11:47:49;;;;;;;2.23;0.67;;;;;;;20.68;51.37;99577.45;1730201;81;20991;-67
2022/09/01 11:50:30;;;;;;;3.08;0.78;;;;;;;20.63;52.57;99569.36;1715921;81;21245;-68